sensor_id;sensor_type;location;lat;lon;timestamp;P1;durP1;ratioP1;P2;durP2;ratioP2
12665;SDS011;58531;59.050;17.416;2023-05-07T00:00:20;2.40;;;2.00;;
12665;SDS011;58531;59.050;17.416;2023-05-07T00:02:47;3.20;;;1.93;;
12665;SDS011;58531;59.050;17.416;2023-05-07T00:05:14;3.00;;;2.20;;
12665;SDS011;58531;59.050;17.416;2023-05-07T00:07:41;3.97;;;2.20;;
12665;SDS011;58531;59.050;17.416;2023-05-07T00:10:10;4.17;;;2.03;;
12665;SDS011;58531;59.050;17.416;2023-05-07T00:12:37;2.27;;;1.93;;
12665;SDS011;58531;59.050;17.416;2023-05-07T00:15:04;3.53;;;2.30;;
12665;SDS011;58531;59.050;17.416;2023-05-07T00:17:32;2.97;;;1.80;;
12665;SDS011;58531;59.050;17.416;2023-05-07T00:19:59;2.73;;;1.80;;
12665;SDS011;58531;59.050;17.416;2023-05-07T00:22:26;2.43;;;1.80;;
12665;SDS011;58531;59.050;17.416;2023-05-07T00:24:55;3.37;;;2.03;;
12665;SDS011;58531;59.050;17.416;2023-05-07T00:27:24;4.47;;;2.10;;
12665;SDS011;58531;59.050;17.416;2023-05-07T00:29:51;2.07;;;1.63;;
12665;SDS011;58531;59.050;17.416;2023-05-07T00:32:17;3.03;;;2.13;;
12665;SDS011;58531;59.050;17.416;2023-05-07T00:34:44;2.77;;;1.90;;
12665;SDS011;58531;59.050;17.416;2023-05-07T00:37:11;2.53;;;2.10;;
12665;SDS011;58531;59.050;17.416;2023-05-07T00:39:38;11.17;;;2.97;;
12665;SDS011;58531;59.050;17.416;2023-05-07T00:42:05;2.90;;;2.13;;
12665;SDS011;58531;59.050;17.416;2023-05-07T00:44:33;3.50;;;2.30;;
12665;SDS011;58531;59.050;17.416;2023-05-07T00:47:00;2.13;;;1.73;;
12665;SDS011;58531;59.050;17.416;2023-05-07T00:49:31;2.60;;;1.97;;
12665;SDS011;58531;59.050;17.416;2023-05-07T00:52:05;2.17;;;1.73;;
12665;SDS011;58531;59.050;17.416;2023-05-07T00:54:33;2.50;;;2.00;;
12665;SDS011;58531;59.050;17.416;2023-05-07T00:57:01;6.13;;;2.20;;
12665;SDS011;58531;59.050;17.416;2023-05-07T00:59:28;3.40;;;1.90;;
12665;SDS011;58531;59.050;17.416;2023-05-07T01:01:57;3.03;;;2.10;;
12665;SDS011;58531;59.050;17.416;2023-05-07T01:04:24;2.77;;;2.17;;
12665;SDS011;58531;59.050;17.416;2023-05-07T01:06:52;4.10;;;2.00;;
12665;SDS011;58531;59.050;17.416;2023-05-07T01:09:21;4.97;;;1.93;;
12665;SDS011;58531;59.050;17.416;2023-05-07T01:11:49;3.27;;;2.23;;
12665;SDS011;58531;59.050;17.416;2023-05-07T01:14:17;2.80;;;2.27;;
12665;SDS011;58531;59.050;17.416;2023-05-07T01:16:45;2.97;;;2.00;;
12665;SDS011;58531;59.050;17.416;2023-05-07T01:19:13;4.83;;;2.10;;
12665;SDS011;58531;59.050;17.416;2023-05-07T01:21:43;3.60;;;1.97;;
12665;SDS011;58531;59.050;17.416;2023-05-07T01:24:14;6.73;;;2.47;;
12665;SDS011;58531;59.050;17.416;2023-05-07T01:26:42;3.17;;;2.00;;
12665;SDS011;58531;59.050;17.416;2023-05-07T01:29:09;3.20;;;2.40;;
12665;SDS011;58531;59.050;17.416;2023-05-07T01:31:36;3.30;;;2.53;;
12665;SDS011;58531;59.050;17.416;2023-05-07T01:34:05;2.90;;;1.80;;
12665;SDS011;58531;59.050;17.416;2023-05-07T01:36:34;5.63;;;2.20;;
12665;SDS011;58531;59.050;17.416;2023-05-07T01:39:02;2.77;;;2.17;;
12665;SDS011;58531;59.050;17.416;2023-05-07T01:41:30;2.90;;;2.23;;
12665;SDS011;58531;59.050;17.416;2023-05-07T01:43:57;2.70;;;2.00;;
12665;SDS011;58531;59.050;17.416;2023-05-07T01:46:26;3.27;;;1.97;;
12665;SDS011;58531;59.050;17.416;2023-05-07T01:48:53;3.23;;;1.80;;
12665;SDS011;58531;59.050;17.416;2023-05-07T01:51:20;5.20;;;2.00;;
12665;SDS011;58531;59.050;17.416;2023-05-07T01:53:48;3.33;;;2.17;;
12665;SDS011;58531;59.050;17.416;2023-05-07T01:56:16;2.67;;;2.10;;
12665;SDS011;58531;59.050;17.416;2023-05-07T01:58:45;2.37;;;1.87;;
12665;SDS011;58531;59.050;17.416;2023-05-07T02:01:12;2.73;;;1.97;;
12665;SDS011;58531;59.050;17.416;2023-05-07T02:03:39;3.57;;;2.30;;
12665;SDS011;58531;59.050;17.416;2023-05-07T02:06:08;3.67;;;1.97;;
12665;SDS011;58531;59.050;17.416;2023-05-07T02:08:34;3.03;;;2.13;;
12665;SDS011;58531;59.050;17.416;2023-05-07T02:11:01;4.30;;;2.40;;
12665;SDS011;58531;59.050;17.416;2023-05-07T02:13:29;3.13;;;2.20;;
12665;SDS011;58531;59.050;17.416;2023-05-07T02:15:59;4.03;;;2.40;;
12665;SDS011;58531;59.050;17.416;2023-05-07T02:18:25;3.30;;;2.33;;
12665;SDS011;58531;59.050;17.416;2023-05-07T02:20:52;4.97;;;2.10;;
12665;SDS011;58531;59.050;17.416;2023-05-07T02:23:19;3.73;;;1.90;;
12665;SDS011;58531;59.050;17.416;2023-05-07T02:25:46;4.00;;;2.53;;
12665;SDS011;58531;59.050;17.416;2023-05-07T02:28:13;2.90;;;2.33;;
12665;SDS011;58531;59.050;17.416;2023-05-07T02:30:40;2.77;;;1.87;;
12665;SDS011;58531;59.050;17.416;2023-05-07T02:33:08;3.77;;;2.47;;
12665;SDS011;58531;59.050;17.416;2023-05-07T02:35:37;3.00;;;2.27;;
12665;SDS011;58531;59.050;17.416;2023-05-07T02:38:04;3.97;;;2.27;;
12665;SDS011;58531;59.050;17.416;2023-05-07T02:40:31;4.17;;;2.50;;
12665;SDS011;58531;59.050;17.416;2023-05-07T02:42:58;2.97;;;2.07;;
12665;SDS011;58531;59.050;17.416;2023-05-07T02:45:25;3.33;;;2.33;;
12665;SDS011;58531;59.050;17.416;2023-05-07T02:47:52;3.27;;;2.13;;
12665;SDS011;58531;59.050;17.416;2023-05-07T02:50:20;3.27;;;2.33;;
12665;SDS011;58531;59.050;17.416;2023-05-07T02:52:47;3.20;;;2.40;;
12665;SDS011;58531;59.050;17.416;2023-05-07T02:55:14;3.80;;;2.33;;
12665;SDS011;58531;59.050;17.416;2023-05-07T02:57:41;4.20;;;2.27;;
12665;SDS011;58531;59.050;17.416;2023-05-07T03:00:11;3.83;;;2.50;;
12665;SDS011;58531;59.050;17.416;2023-05-07T03:02:39;2.93;;;2.03;;
12665;SDS011;58531;59.050;17.416;2023-05-07T03:05:06;4.70;;;2.80;;
12665;SDS011;58531;59.050;17.416;2023-05-07T03:07:35;5.97;;;2.57;;
12665;SDS011;58531;59.050;17.416;2023-05-07T03:10:02;5.33;;;2.60;;
12665;SDS011;58531;59.050;17.416;2023-05-07T03:12:29;3.40;;;2.40;;
12665;SDS011;58531;59.050;17.416;2023-05-07T03:14:56;4.03;;;2.70;;
12665;SDS011;58531;59.050;17.416;2023-05-07T03:17:23;4.43;;;2.67;;
12665;SDS011;58531;59.050;17.416;2023-05-07T03:19:50;4.53;;;2.93;;
12665;SDS011;58531;59.050;17.416;2023-05-07T03:22:17;3.83;;;2.53;;
12665;SDS011;58531;59.050;17.416;2023-05-07T03:24:45;4.63;;;2.90;;
12665;SDS011;58531;59.050;17.416;2023-05-07T03:27:12;4.33;;;2.40;;
12665;SDS011;58531;59.050;17.416;2023-05-07T03:29:39;4.23;;;2.03;;
12665;SDS011;58531;59.050;17.416;2023-05-07T03:32:06;4.17;;;2.47;;
12665;SDS011;58531;59.050;17.416;2023-05-07T03:34:32;3.33;;;2.50;;
12665;SDS011;58531;59.050;17.416;2023-05-07T03:36:59;4.67;;;2.67;;
12665;SDS011;58531;59.050;17.416;2023-05-07T03:39:26;5.83;;;2.67;;
12665;SDS011;58531;59.050;17.416;2023-05-07T03:41:55;5.63;;;3.43;;
12665;SDS011;58531;59.050;17.416;2023-05-07T03:44:21;8.90;;;5.80;;
12665;SDS011;58531;59.050;17.416;2023-05-07T03:46:48;4.27;;;2.90;;
12665;SDS011;58531;59.050;17.416;2023-05-07T03:49:15;4.77;;;3.33;;
12665;SDS011;58531;59.050;17.416;2023-05-07T03:51:42;7.93;;;3.90;;
12665;SDS011;58531;59.050;17.416;2023-05-07T03:54:09;37.23;;;8.33;;
12665;SDS011;58531;59.050;17.416;2023-05-07T03:56:36;88.73;;;15.13;;
12665;SDS011;58531;59.050;17.416;2023-05-07T03:59:04;3.90;;;3.43;;
12665;SDS011;58531;59.050;17.416;2023-05-07T04:01:31;4.07;;;2.77;;
12665;SDS011;58531;59.050;17.416;2023-05-07T04:03:58;2.20;;;2.00;;
12665;SDS011;58531;59.050;17.416;2023-05-07T04:06:25;1.77;;;1.67;;
12665;SDS011;58531;59.050;17.416;2023-05-07T04:08:52;1.77;;;1.57;;
12665;SDS011;58531;59.050;17.416;2023-05-07T04:11:19;1.83;;;1.23;;
12665;SDS011;58531;59.050;17.416;2023-05-07T04:13:46;1.00;;;1.00;;
12665;SDS011;58531;59.050;17.416;2023-05-07T04:16:14;1.13;;;1.03;;
12665;SDS011;58531;59.050;17.416;2023-05-07T04:18:41;1.03;;;0.97;;
12665;SDS011;58531;59.050;17.416;2023-05-07T04:21:13;1.20;;;1.10;;
12665;SDS011;58531;59.050;17.416;2023-05-07T04:23:40;1.40;;;1.27;;
12665;SDS011;58531;59.050;17.416;2023-05-07T04:26:07;1.73;;;0.90;;
12665;SDS011;58531;59.050;17.416;2023-05-07T04:28:34;1.23;;;1.13;;
12665;SDS011;58531;59.050;17.416;2023-05-07T04:31:01;1.27;;;1.10;;
12665;SDS011;58531;59.050;17.416;2023-05-07T04:33:29;1.40;;;0.93;;
12665;SDS011;58531;59.050;17.416;2023-05-07T04:35:56;2.17;;;1.30;;
12665;SDS011;58531;59.050;17.416;2023-05-07T04:38:27;1.73;;;1.20;;
12665;SDS011;58531;59.050;17.416;2023-05-07T04:40:54;2.80;;;1.80;;
12665;SDS011;58531;59.050;17.416;2023-05-07T04:43:21;2.07;;;1.33;;
12665;SDS011;58531;59.050;17.416;2023-05-07T04:45:49;3.10;;;1.50;;
12665;SDS011;58531;59.050;17.416;2023-05-07T04:48:16;1.60;;;1.50;;
12665;SDS011;58531;59.050;17.416;2023-05-07T04:50:46;6.07;;;4.57;;
12665;SDS011;58531;59.050;17.416;2023-05-07T04:53:14;4.17;;;3.80;;
12665;SDS011;58531;59.050;17.416;2023-05-07T04:55:40;2.30;;;2.10;;
12665;SDS011;58531;59.050;17.416;2023-05-07T04:58:07;1.63;;;1.50;;
12665;SDS011;58531;59.050;17.416;2023-05-07T05:00:34;2.00;;;1.50;;
12665;SDS011;58531;59.050;17.416;2023-05-07T05:03:01;1.73;;;1.20;;
12665;SDS011;58531;59.050;17.416;2023-05-07T05:05:28;2.30;;;1.20;;
12665;SDS011;58531;59.050;17.416;2023-05-07T05:07:56;1.27;;;1.13;;
12665;SDS011;58531;59.050;17.416;2023-05-07T05:10:23;1.90;;;1.00;;
12665;SDS011;58531;59.050;17.416;2023-05-07T05:12:50;1.77;;;1.30;;
12665;SDS011;58531;59.050;17.416;2023-05-07T05:15:17;2.20;;;1.10;;
12665;SDS011;58531;59.050;17.416;2023-05-07T05:17:44;1.53;;;0.90;;
12665;SDS011;58531;59.050;17.416;2023-05-07T05:20:11;1.10;;;1.00;;
12665;SDS011;58531;59.050;17.416;2023-05-07T05:22:37;1.17;;;1.07;;
12665;SDS011;58531;59.050;17.416;2023-05-07T05:25:06;1.00;;;0.90;;
12665;SDS011;58531;59.050;17.416;2023-05-07T05:27:34;1.50;;;1.10;;
12665;SDS011;58531;59.050;17.416;2023-05-07T05:30:01;1.10;;;1.00;;
12665;SDS011;58531;59.050;17.416;2023-05-07T05:32:28;1.70;;;0.97;;
12665;SDS011;58531;59.050;17.416;2023-05-07T05:34:54;1.00;;;0.90;;
12665;SDS011;58531;59.050;17.416;2023-05-07T05:37:21;1.17;;;0.93;;
12665;SDS011;58531;59.050;17.416;2023-05-07T05:39:48;2.87;;;0.90;;
12665;SDS011;58531;59.050;17.416;2023-05-07T05:42:16;1.50;;;1.30;;
12665;SDS011;58531;59.050;17.416;2023-05-07T05:44:43;0.90;;;0.90;;
12665;SDS011;58531;59.050;17.416;2023-05-07T05:47:10;2.10;;;1.13;;
12665;SDS011;58531;59.050;17.416;2023-05-07T05:49:37;1.10;;;1.00;;
12665;SDS011;58531;59.050;17.416;2023-05-07T05:52:04;0.93;;;0.90;;
12665;SDS011;58531;59.050;17.416;2023-05-07T05:54:31;0.87;;;0.83;;
12665;SDS011;58531;59.050;17.416;2023-05-07T05:56:57;2.60;;;1.40;;
12665;SDS011;58531;59.050;17.416;2023-05-07T05:59:26;1.03;;;0.93;;
12665;SDS011;58531;59.050;17.416;2023-05-07T06:01:53;1.57;;;1.10;;
12665;SDS011;58531;59.050;17.416;2023-05-07T06:04:19;1.00;;;0.90;;
12665;SDS011;58531;59.050;17.416;2023-05-07T06:06:46;1.10;;;1.00;;
12665;SDS011;58531;59.050;17.416;2023-05-07T06:09:13;1.63;;;1.20;;
12665;SDS011;58531;59.050;17.416;2023-05-07T06:11:40;1.10;;;1.00;;
12665;SDS011;58531;59.050;17.416;2023-05-07T06:14:07;1.00;;;1.00;;
12665;SDS011;58531;59.050;17.416;2023-05-07T06:16:35;1.57;;;1.20;;
12665;SDS011;58531;59.050;17.416;2023-05-07T06:19:03;1.10;;;1.00;;
12665;SDS011;58531;59.050;17.416;2023-05-07T06:21:29;1.17;;;1.03;;
12665;SDS011;58531;59.050;17.416;2023-05-07T06:23:56;1.10;;;1.00;;
12665;SDS011;58531;59.050;17.416;2023-05-07T06:26:23;1.07;;;0.80;;
12665;SDS011;58531;59.050;17.416;2023-05-07T06:28:50;2.57;;;1.20;;
12665;SDS011;58531;59.050;17.416;2023-05-07T06:31:17;1.60;;;1.20;;
12665;SDS011;58531;59.050;17.416;2023-05-07T06:33:48;2.67;;;1.10;;
12665;SDS011;58531;59.050;17.416;2023-05-07T06:36:15;3.50;;;1.30;;
12665;SDS011;58531;59.050;17.416;2023-05-07T06:38:42;1.10;;;1.00;;
12665;SDS011;58531;59.050;17.416;2023-05-07T06:41:09;0.90;;;0.90;;
12665;SDS011;58531;59.050;17.416;2023-05-07T06:43:35;1.37;;;0.93;;
12665;SDS011;58531;59.050;17.416;2023-05-07T06:46:02;2.40;;;1.03;;
12665;SDS011;58531;59.050;17.416;2023-05-07T06:48:30;1.13;;;1.03;;
12665;SDS011;58531;59.050;17.416;2023-05-07T06:50:58;1.90;;;1.17;;
12665;SDS011;58531;59.050;17.416;2023-05-07T06:53:25;1.47;;;1.20;;
12665;SDS011;58531;59.050;17.416;2023-05-07T06:55:53;1.63;;;1.17;;
12665;SDS011;58531;59.050;17.416;2023-05-07T06:58:20;1.53;;;1.10;;
12665;SDS011;58531;59.050;17.416;2023-05-07T07:00:47;1.03;;;0.93;;
12665;SDS011;58531;59.050;17.416;2023-05-07T07:03:14;1.30;;;1.10;;
12665;SDS011;58531;59.050;17.416;2023-05-07T07:05:41;1.20;;;1.10;;
12665;SDS011;58531;59.050;17.416;2023-05-07T07:08:09;1.53;;;1.10;;
12665;SDS011;58531;59.050;17.416;2023-05-07T07:10:36;1.37;;;1.27;;
12665;SDS011;58531;59.050;17.416;2023-05-07T07:13:03;2.50;;;1.13;;
12665;SDS011;58531;59.050;17.416;2023-05-07T07:15:29;1.00;;;0.90;;
12665;SDS011;58531;59.050;17.416;2023-05-07T07:17:56;1.40;;;1.00;;
12665;SDS011;58531;59.050;17.416;2023-05-07T07:20:23;2.00;;;1.30;;
12665;SDS011;58531;59.050;17.416;2023-05-07T07:22:50;1.30;;;1.20;;
12665;SDS011;58531;59.050;17.416;2023-05-07T07:25:18;1.30;;;1.20;;
12665;SDS011;58531;59.050;17.416;2023-05-07T07:27:45;1.30;;;1.20;;
12665;SDS011;58531;59.050;17.416;2023-05-07T07:30:12;1.30;;;1.20;;
12665;SDS011;58531;59.050;17.416;2023-05-07T07:32:39;1.47;;;1.10;;
12665;SDS011;58531;59.050;17.416;2023-05-07T07:35:06;1.67;;;1.40;;
12665;SDS011;58531;59.050;17.416;2023-05-07T07:37:33;3.27;;;1.80;;
12665;SDS011;58531;59.050;17.416;2023-05-07T07:40:00;1.83;;;1.40;;
12665;SDS011;58531;59.050;17.416;2023-05-07T07:42:29;1.40;;;1.30;;
12665;SDS011;58531;59.050;17.416;2023-05-07T07:44:56;1.33;;;1.03;;
12665;SDS011;58531;59.050;17.416;2023-05-07T07:47:23;1.57;;;1.40;;
12665;SDS011;58531;59.050;17.416;2023-05-07T07:49:50;1.57;;;1.20;;
12665;SDS011;58531;59.050;17.416;2023-05-07T07:52:17;1.00;;;1.00;;
12665;SDS011;58531;59.050;17.416;2023-05-07T07:54:45;1.30;;;1.20;;
12665;SDS011;58531;59.050;17.416;2023-05-07T07:57:11;2.17;;;1.00;;
12665;SDS011;58531;59.050;17.416;2023-05-07T07:59:40;2.13;;;0.93;;
12665;SDS011;58531;59.050;17.416;2023-05-07T08:02:08;1.60;;;1.30;;
12665;SDS011;58531;59.050;17.416;2023-05-07T08:04:35;1.47;;;1.37;;
12665;SDS011;58531;59.050;17.416;2023-05-07T08:07:02;1.20;;;1.10;;
12665;SDS011;58531;59.050;17.416;2023-05-07T08:09:29;1.63;;;1.10;;
12665;SDS011;58531;59.050;17.416;2023-05-07T08:11:56;2.03;;;1.13;;
12665;SDS011;58531;59.050;17.416;2023-05-07T08:14:23;1.80;;;1.13;;
12665;SDS011;58531;59.050;17.416;2023-05-07T08:16:51;2.77;;;1.03;;
12665;SDS011;58531;59.050;17.416;2023-05-07T08:19:18;1.13;;;1.00;;
12665;SDS011;58531;59.050;17.416;2023-05-07T08:21:45;1.17;;;1.07;;
12665;SDS011;58531;59.050;17.416;2023-05-07T08:24:12;2.10;;;1.20;;
12665;SDS011;58531;59.050;17.416;2023-05-07T08:26:39;1.20;;;1.00;;
12665;SDS011;58531;59.050;17.416;2023-05-07T08:29:06;1.70;;;1.10;;
12665;SDS011;58531;59.050;17.416;2023-05-07T08:31:34;1.20;;;1.10;;
12665;SDS011;58531;59.050;17.416;2023-05-07T08:34:02;1.77;;;1.23;;
12665;SDS011;58531;59.050;17.416;2023-05-07T08:36:30;1.87;;;1.23;;
12665;SDS011;58531;59.050;17.416;2023-05-07T08:38:57;3.30;;;1.20;;
12665;SDS011;58531;59.050;17.416;2023-05-07T08:41:24;1.77;;;1.20;;
12665;SDS011;58531;59.050;17.416;2023-05-07T08:43:51;1.63;;;1.10;;
12665;SDS011;58531;59.050;17.416;2023-05-07T08:46:18;2.97;;;1.30;;
12665;SDS011;58531;59.050;17.416;2023-05-07T08:48:47;1.33;;;1.00;;
12665;SDS011;58531;59.050;17.416;2023-05-07T08:51:17;1.43;;;1.20;;
12665;SDS011;58531;59.050;17.416;2023-05-07T08:53:45;1.83;;;1.20;;
12665;SDS011;58531;59.050;17.416;2023-05-07T08:56:13;1.77;;;1.20;;
12665;SDS011;58531;59.050;17.416;2023-05-07T08:58:42;1.43;;;1.10;;
12665;SDS011;58531;59.050;17.416;2023-05-07T09:01:09;1.13;;;1.00;;
12665;SDS011;58531;59.050;17.416;2023-05-07T09:03:39;2.03;;;1.10;;
12665;SDS011;58531;59.050;17.416;2023-05-07T09:06:08;1.00;;;1.00;;
12665;SDS011;58531;59.050;17.416;2023-05-07T09:08:36;3.43;;;1.30;;
12665;SDS011;58531;59.050;17.416;2023-05-07T09:11:03;1.40;;;1.20;;
12665;SDS011;58531;59.050;17.416;2023-05-07T09:13:30;1.40;;;1.30;;
12665;SDS011;58531;59.050;17.416;2023-05-07T09:15:57;2.63;;;1.20;;
12665;SDS011;58531;59.050;17.416;2023-05-07T09:18:39;1.30;;;1.10;;
12665;SDS011;58531;59.050;17.416;2023-05-07T09:21:09;1.10;;;1.00;;
12665;SDS011;58531;59.050;17.416;2023-05-07T09:23:37;1.60;;;1.10;;
12665;SDS011;58531;59.050;17.416;2023-05-07T09:26:05;1.90;;;1.10;;
12665;SDS011;58531;59.050;17.416;2023-05-07T09:28:37;1.30;;;1.20;;
12665;SDS011;58531;59.050;17.416;2023-05-07T09:31:06;3.13;;;1.30;;
12665;SDS011;58531;59.050;17.416;2023-05-07T09:33:33;1.43;;;1.20;;
12665;SDS011;58531;59.050;17.416;2023-05-07T09:36:02;2.23;;;1.20;;
12665;SDS011;58531;59.050;17.416;2023-05-07T09:38:30;1.80;;;1.10;;
12665;SDS011;58531;59.050;17.416;2023-05-07T09:41:05;1.40;;;0.93;;
12665;SDS011;58531;59.050;17.416;2023-05-07T09:43:33;1.40;;;1.20;;
12665;SDS011;58531;59.050;17.416;2023-05-07T09:46:06;3.10;;;1.10;;
12665;SDS011;58531;59.050;17.416;2023-05-07T09:48:38;1.10;;;1.00;;
12665;SDS011;58531;59.050;17.416;2023-05-07T09:51:08;1.67;;;1.47;;
12665;SDS011;58531;59.050;17.416;2023-05-07T09:53:41;1.53;;;1.20;;
12665;SDS011;58531;59.050;17.416;2023-05-07T09:56:12;2.53;;;1.00;;
12665;SDS011;58531;59.050;17.416;2023-05-07T09:58:41;1.03;;;0.90;;
12665;SDS011;58531;59.050;17.416;2023-05-07T10:01:09;2.23;;;1.13;;
12665;SDS011;58531;59.050;17.416;2023-05-07T10:03:37;4.60;;;1.30;;
12665;SDS011;58531;59.050;17.416;2023-05-07T10:06:07;1.87;;;1.10;;
12665;SDS011;58531;59.050;17.416;2023-05-07T10:08:35;2.50;;;1.10;;
12665;SDS011;58531;59.050;17.416;2023-05-07T10:11:03;1.67;;;0.90;;
12665;SDS011;58531;59.050;17.416;2023-05-07T10:13:32;1.33;;;1.13;;
12665;SDS011;58531;59.050;17.416;2023-05-07T10:16:01;1.20;;;1.10;;
12665;SDS011;58531;59.050;17.416;2023-05-07T10:18:30;1.73;;;1.17;;
12665;SDS011;58531;59.050;17.416;2023-05-07T10:20:59;2.63;;;0.90;;
12665;SDS011;58531;59.050;17.416;2023-05-07T10:23:31;1.33;;;0.97;;
12665;SDS011;58531;59.050;17.416;2023-05-07T10:25:58;1.67;;;1.27;;
12665;SDS011;58531;59.050;17.416;2023-05-07T10:28:28;2.10;;;1.20;;
12665;SDS011;58531;59.050;17.416;2023-05-07T10:31:01;3.00;;;1.10;;
12665;SDS011;58531;59.050;17.416;2023-05-07T10:33:36;2.47;;;1.30;;
12665;SDS011;58531;59.050;17.416;2023-05-07T10:36:05;1.73;;;0.93;;
12665;SDS011;58531;59.050;17.416;2023-05-07T10:38:33;1.57;;;1.00;;
12665;SDS011;58531;59.050;17.416;2023-05-07T10:41:00;2.07;;;1.20;;
12665;SDS011;58531;59.050;17.416;2023-05-07T10:43:38;1.43;;;1.00;;
12665;SDS011;58531;59.050;17.416;2023-05-07T10:46:10;1.33;;;1.13;;
12665;SDS011;58531;59.050;17.416;2023-05-07T10:51:36;1.90;;;1.40;;
12665;SDS011;58531;59.050;17.416;2023-05-07T10:54:19;0.97;;;0.90;;
12665;SDS011;58531;59.050;17.416;2023-05-07T10:56:47;0.93;;;0.90;;
12665;SDS011;58531;59.050;17.416;2023-05-07T10:59:34;1.13;;;0.90;;
12665;SDS011;58531;59.050;17.416;2023-05-07T11:02:08;0.97;;;0.87;;
12665;SDS011;58531;59.050;17.416;2023-05-07T11:04:36;1.57;;;1.00;;
12665;SDS011;58531;59.050;17.416;2023-05-07T11:09:56;1.00;;;0.87;;
12665;SDS011;58531;59.050;17.416;2023-05-07T11:12:48;2.03;;;1.00;;
12665;SDS011;58531;59.050;17.416;2023-05-07T11:15:34;2.33;;;1.40;;
12665;SDS011;58531;59.050;17.416;2023-05-07T11:18:04;1.20;;;0.90;;
12665;SDS011;58531;59.050;17.416;2023-05-07T11:20:47;2.30;;;0.97;;
12665;SDS011;58531;59.050;17.416;2023-05-07T11:26:26;0.90;;;0.90;;
12665;SDS011;58531;59.050;17.416;2023-05-07T11:28:55;1.90;;;1.10;;
12665;SDS011;58531;59.050;17.416;2023-05-07T11:31:25;1.90;;;0.80;;
12665;SDS011;58531;59.050;17.416;2023-05-07T11:33:55;3.77;;;1.10;;
12665;SDS011;58531;59.050;17.416;2023-05-07T11:36:23;2.57;;;1.07;;
12665;SDS011;58531;59.050;17.416;2023-05-07T11:38:51;0.80;;;0.80;;
12665;SDS011;58531;59.050;17.416;2023-05-07T11:41:18;2.63;;;1.27;;
12665;SDS011;58531;59.050;17.416;2023-05-07T11:43:53;1.53;;;1.07;;
12665;SDS011;58531;59.050;17.416;2023-05-07T11:46:22;1.27;;;1.00;;
12665;SDS011;58531;59.050;17.416;2023-05-07T11:48:49;2.57;;;0.97;;
12665;SDS011;58531;59.050;17.416;2023-05-07T11:51:20;1.53;;;1.20;;
12665;SDS011;58531;59.050;17.416;2023-05-07T11:53:47;1.97;;;1.00;;
12665;SDS011;58531;59.050;17.416;2023-05-07T11:56:15;1.17;;;0.97;;
12665;SDS011;58531;59.050;17.416;2023-05-07T11:58:43;1.90;;;1.10;;
12665;SDS011;58531;59.050;17.416;2023-05-07T12:01:12;1.97;;;1.00;;
12665;SDS011;58531;59.050;17.416;2023-05-07T12:03:40;3.90;;;1.27;;
12665;SDS011;58531;59.050;17.416;2023-05-07T12:06:09;1.33;;;1.00;;
12665;SDS011;58531;59.050;17.416;2023-05-07T12:08:39;1.33;;;0.93;;
12665;SDS011;58531;59.050;17.416;2023-05-07T12:11:07;3.17;;;0.90;;
12665;SDS011;58531;59.050;17.416;2023-05-07T12:13:36;1.00;;;0.90;;
12665;SDS011;58531;59.050;17.416;2023-05-07T12:16:04;1.93;;;0.90;;
12665;SDS011;58531;59.050;17.416;2023-05-07T12:18:32;1.13;;;0.90;;
12665;SDS011;58531;59.050;17.416;2023-05-07T12:21:01;2.77;;;1.50;;
12665;SDS011;58531;59.050;17.416;2023-05-07T12:23:28;1.10;;;0.90;;
12665;SDS011;58531;59.050;17.416;2023-05-07T12:25:57;1.93;;;0.83;;
12665;SDS011;58531;59.050;17.416;2023-05-07T12:28:26;0.77;;;0.77;;
12665;SDS011;58531;59.050;17.416;2023-05-07T12:30:53;1.53;;;1.17;;
12665;SDS011;58531;59.050;17.416;2023-05-07T12:33:23;0.90;;;0.90;;
12665;SDS011;58531;59.050;17.416;2023-05-07T12:35:50;1.17;;;1.00;;
12665;SDS011;58531;59.050;17.416;2023-05-07T12:38:20;1.20;;;1.10;;
12665;SDS011;58531;59.050;17.416;2023-05-07T12:40:47;1.23;;;0.93;;
12665;SDS011;58531;59.050;17.416;2023-05-07T12:43:17;1.57;;;0.90;;
12665;SDS011;58531;59.050;17.416;2023-05-07T12:45:45;2.23;;;1.20;;
12665;SDS011;58531;59.050;17.416;2023-05-07T12:48:13;1.27;;;0.90;;
12665;SDS011;58531;59.050;17.416;2023-05-07T12:50:40;1.50;;;1.10;;
12665;SDS011;58531;59.050;17.416;2023-05-07T12:53:08;1.20;;;0.93;;
12665;SDS011;58531;59.050;17.416;2023-05-07T12:55:40;1.13;;;0.90;;
12665;SDS011;58531;59.050;17.416;2023-05-07T12:58:08;1.73;;;1.33;;
12665;SDS011;58531;59.050;17.416;2023-05-07T13:00:43;1.13;;;0.90;;
12665;SDS011;58531;59.050;17.416;2023-05-07T13:03:10;1.37;;;1.03;;
12665;SDS011;58531;59.050;17.416;2023-05-07T13:05:38;1.13;;;1.03;;
12665;SDS011;58531;59.050;17.416;2023-05-07T13:08:05;2.40;;;1.10;;
12665;SDS011;58531;59.050;17.416;2023-05-07T13:10:34;1.80;;;1.07;;
12665;SDS011;58531;59.050;17.416;2023-05-07T13:13:01;1.90;;;1.10;;
12665;SDS011;58531;59.050;17.416;2023-05-07T13:15:28;2.40;;;1.10;;
12665;SDS011;58531;59.050;17.416;2023-05-07T13:17:57;2.23;;;1.13;;
12665;SDS011;58531;59.050;17.416;2023-05-07T13:20:24;1.97;;;1.20;;
12665;SDS011;58531;59.050;17.416;2023-05-07T13:22:51;2.70;;;1.20;;
12665;SDS011;58531;59.050;17.416;2023-05-07T13:25:17;1.73;;;1.23;;
12665;SDS011;58531;59.050;17.416;2023-05-07T13:27:44;1.33;;;1.00;;
12665;SDS011;58531;59.050;17.416;2023-05-07T13:30:11;1.97;;;1.30;;
12665;SDS011;58531;59.050;17.416;2023-05-07T13:32:38;1.83;;;1.20;;
12665;SDS011;58531;59.050;17.416;2023-05-07T13:35:07;1.90;;;1.10;;
12665;SDS011;58531;59.050;17.416;2023-05-07T13:37:34;1.47;;;1.30;;
12665;SDS011;58531;59.050;17.416;2023-05-07T13:40:01;1.10;;;1.00;;
12665;SDS011;58531;59.050;17.416;2023-05-07T13:42:28;1.70;;;1.37;;
12665;SDS011;58531;59.050;17.416;2023-05-07T13:44:55;1.20;;;1.10;;
12665;SDS011;58531;59.050;17.416;2023-05-07T13:47:23;2.53;;;1.10;;
12665;SDS011;58531;59.050;17.416;2023-05-07T13:49:49;2.60;;;1.30;;
12665;SDS011;58531;59.050;17.416;2023-05-07T13:52:18;2.03;;;1.10;;
12665;SDS011;58531;59.050;17.416;2023-05-07T13:54:45;2.63;;;1.10;;
12665;SDS011;58531;59.050;17.416;2023-05-07T13:57:12;1.20;;;1.00;;
12665;SDS011;58531;59.050;17.416;2023-05-07T13:59:39;1.93;;;1.40;;
12665;SDS011;58531;59.050;17.416;2023-05-07T14:02:06;1.70;;;1.10;;
12665;SDS011;58531;59.050;17.416;2023-05-07T14:04:34;2.73;;;1.40;;
12665;SDS011;58531;59.050;17.416;2023-05-07T14:07:01;1.57;;;0.97;;
12665;SDS011;58531;59.050;17.416;2023-05-07T14:09:29;1.50;;;0.90;;
12665;SDS011;58531;59.050;17.416;2023-05-07T14:11:56;1.23;;;0.97;;
12665;SDS011;58531;59.050;17.416;2023-05-07T14:14:23;1.67;;;1.10;;
12665;SDS011;58531;59.050;17.416;2023-05-07T14:16:50;2.80;;;1.10;;
12665;SDS011;58531;59.050;17.416;2023-05-07T14:19:16;1.57;;;1.20;;
12665;SDS011;58531;59.050;17.416;2023-05-07T14:21:43;1.10;;;1.00;;
12665;SDS011;58531;59.050;17.416;2023-05-07T14:24:10;1.53;;;1.17;;
12665;SDS011;58531;59.050;17.416;2023-05-07T14:26:38;2.03;;;1.00;;
12665;SDS011;58531;59.050;17.416;2023-05-07T14:29:05;2.17;;;1.10;;
12665;SDS011;58531;59.050;17.416;2023-05-07T14:31:32;1.53;;;1.17;;
12665;SDS011;58531;59.050;17.416;2023-05-07T14:33:59;1.13;;;1.03;;
12665;SDS011;58531;59.050;17.416;2023-05-07T14:36:26;2.13;;;1.03;;
12665;SDS011;58531;59.050;17.416;2023-05-07T14:38:53;1.60;;;1.20;;
12665;SDS011;58531;59.050;17.416;2023-05-07T14:41:20;3.13;;;1.30;;
12665;SDS011;58531;59.050;17.416;2023-05-07T14:43:49;2.80;;;1.00;;
12665;SDS011;58531;59.050;17.416;2023-05-07T14:46:16;4.77;;;1.07;;